Time;durP1;ratioP1;P1;durP2;ratioP2;P2;SDS_P1;SDS_P2;PMS_P1;PMS_P2;Temp;Humidity;BMP_temperature;BMP_pressure;BME280_temperature;BME280_humidity;BME280_pressure;Samples;Min_cycle;Max_cycle;Signal;HPM_P1;HPM_P2
2022/05/03 00:01:25;;;;;;;4.43;2.07;;;;;;;16.66;45.53;101186.88;2569494;23;20934;-64
2022/05/03 00:02:57;;;;;;;4.23;1.90;;;;;;;16.45;45.66;101180.09;2569657;23;20374;-64
2022/05/03 00:04:19;;;;;;;3.90;1.97;;;;;;;16.58;45.79;101193.97;2569431;23;20766;-65
2022/05/03 00:05:39;;;;;;;4.23;1.80;;;;;;;16.52;45.58;101193.03;2569123;23;20708;-64
2022/05/03 00:07:12;;;;;;;3.37;1.93;;;;;;;16.58;46.13;101193.22;2569329;23;20365;-65
2022/05/03 00:08:36;;;;;;;4.00;1.93;;;;;;;16.59;45.90;101189.97;2569812;23;20380;-64
2022/05/03 00:10:00;;;;;;;7.30;1.77;;;;;;;16.54;45.67;101196.16;2569719;23;20374;-66
2022/05/03 00:11:24;;;;;;;4.30;1.83;;;;;;;16.53;45.68;101189.78;2548430;23;20388;-64
2022/05/03 00:12:34;;;;;;;3.60;1.90;;;;;;;16.45;46.30;101196.88;2569717;23;20366;-65
2022/05/03 00:13:58;;;;;;;6.70;2.07;;;;;;;16.45;46.36;101184.91;2569490;23;20404;-64
2022/05/03 00:15:01;;;;;;;4.10;2.00;;;;;;;16.48;46.06;101190.38;2569667;23;20358;-65
2022/05/03 00:16:02;;;;;;;6.30;2.23;;;;;;;16.48;46.21;101184.78;2569234;23;20390;-65
2022/05/03 00:17:04;;;;;;;3.53;1.93;;;;;;;16.47;46.22;101187.25;2569688;23;20374;-65
2022/05/03 00:18:06;;;;;;;3.40;1.97;;;;;;;16.52;46.39;101195.06;2556397;23;20490;-64
2022/05/03 00:19:07;;;;;;;4.20;1.70;;;;;;;16.52;46.35;101179.03;2556350;23;20573;-64
2022/05/03 00:20:08;;;;;;;2.73;1.93;;;;;;;16.61;46.52;101187.47;2569034;23;20373;-64
2022/05/03 00:21:10;;;;;;;3.73;1.80;;;;;;;16.49;45.99;101180.72;2556569;23;20236;-64
2022/05/03 00:22:14;;;;;;;3.77;2.00;;;;;;;16.63;45.76;101193.38;2557647;23;21096;-65
2022/05/03 00:23:15;;;;;;;3.63;2.00;;;;;;;16.65;45.83;101191.69;2570329;23;20390;-64
2022/05/03 00:24:17;;;;;;;5.03;2.03;;;;;;;16.60;46.02;101197.13;2570529;23;20408;-65
2022/05/03 00:25:17;;;;;;;5.23;2.47;;;;;;;15.33;45.77;100990.78;2570021;23;20382;-64
2022/05/03 00:26:18;;;;;;;6.17;2.17;;;;;;;15.88;45.64;101074.44;2570249;23;20378;-64
2022/05/03 00:27:19;;;;;;;5.13;2.07;;;;;;;16.55;46.01;101194.91;2570542;23;20152;-64
2022/05/03 00:28:19;;;;;;;5.90;2.43;;;;;;;16.57;46.03;101194.47;2570728;23;20155;-64
2022/05/03 00:29:21;;;;;;;4.63;2.20;;;;;;;16.53;46.21;101200.97;2570295;23;20221;-64
2022/05/03 00:30:21;;;;;;;3.87;1.93;;;;;;;16.48;46.44;101195.97;2569875;23;20172;-64
2022/05/03 00:31:24;;;;;;;3.33;1.97;;;;;;;15.83;46.55;101093.81;2570627;23;20389;-65
2022/05/03 00:32:26;;;;;;;3.77;2.23;;;;;;;16.47;46.25;101187.25;2570467;23;20308;-65
2022/05/03 00:33:29;;;;;;;4.40;2.10;;;;;;;16.47;46.54;101190.06;2570365;23;21080;-64
2022/05/03 00:34:32;;;;;;;5.33;1.93;;;;;;;16.08;46.47;101146.78;2570208;23;20380;-64
2022/05/03 00:35:33;;;;;;;5.57;2.30;;;;;;;16.40;46.70;101186.28;2556973;23;20410;-64
2022/05/03 00:36:33;;;;;;;3.30;2.00;;;;;;;16.39;47.38;101183.97;2556828;23;20509;-64
2022/05/03 00:37:34;;;;;;;3.67;2.00;;;;;;;16.30;46.92;101187.44;2570636;23;20478;-64
2022/05/03 00:38:34;;;;;;;4.40;2.00;;;;;;;16.31;46.79;101182.63;2569893;23;20159;-64
2022/05/03 00:39:35;;;;;;;5.43;2.37;;;;;;;16.29;46.97;101177.47;2570529;23;20168;-64
2022/05/03 00:40:44;;;;;;;3.30;1.90;;;;;;;16.33;46.70;101185.72;2569824;23;20712;-65
2022/05/03 00:41:59;;;;;;;4.53;2.03;;;;;;;16.35;47.01;101181.25;2570401;23;20222;-64
2022/05/03 00:43:14;;;;;;;4.10;2.00;;;;;;;16.32;46.90;101181.38;2570551;23;20502;-64
2022/05/03 00:46:07;;;;;;;3.07;1.93;;;;;;;15.85;47.56;101116.50;2570330;23;20366;-65
2022/05/03 00:47:15;;;;;;;4.90;1.90;;;;;;;16.27;47.72;101176.38;2570287;23;20391;-64
2022/05/03 00:48:18;;;;;;;4.03;1.97;;;;;;;16.26;47.77;101178.41;2570486;23;20374;-64
2022/05/03 00:49:50;;;;;;;4.90;2.10;;;;;;;16.31;47.74;101171.44;2570105;23;20766;-64
2022/05/03 00:51:06;;;;;;;3.43;1.90;;;;;;;16.25;48.22;101176.84;2548752;23;20390;-64
2022/05/03 00:52:27;;;;;;;3.80;1.97;;;;;;;16.24;48.22;101178.06;2570628;23;20401;-64
2022/05/03 00:53:33;;;;;;;4.47;2.07;;;;;;;16.27;48.07;101184.78;2570133;23;20511;-64
2022/05/03 00:54:53;;;;;;;5.23;2.23;;;;;;;16.22;48.33;101188.16;2570122;23;20370;-64
2022/05/03 00:56:28;;;;;;;4.23;2.10;;;;;;;16.21;48.16;101181.00;2569854;23;20452;-65
2022/05/03 00:58:00;;;;;;;4.73;2.20;;;;;;;16.21;48.65;101189.41;2570529;23;20415;-65
2022/05/03 00:59:06;;;;;;;6.90;2.40;;;;;;;16.24;49.04;101180.13;2544384;23;20440;-64
2022/05/03 01:00:13;;;;;;;3.17;1.80;;;;;;;16.03;48.65;101152.97;2569829;23;20371;-64
2022/05/03 01:01:29;;;;;;;3.97;1.90;;;;;;;16.25;49.07;101184.47;2570340;23;20387;-65
2022/05/03 01:02:41;;;;;;;6.20;2.40;;;;;;;16.21;49.00;101173.41;2570292;23;20452;-64
2022/05/03 01:04:01;;;;;;;4.63;2.23;;;;;;;16.27;49.17;101182.78;2570207;23;20362;-64
2022/05/03 01:05:09;;;;;;;3.63;2.17;;;;;;;16.28;49.04;101180.72;2544066;23;20389;-64
2022/05/03 01:06:13;;;;;;;3.00;2.30;;;;;;;16.29;49.49;101182.31;2567703;23;20430;-64
2022/05/03 01:07:32;;;;;;;6.57;2.13;;;;;;;16.19;49.23;101169.53;2570272;23;20374;-64
2022/05/03 01:08:43;;;;;;;6.73;2.33;;;;;;;16.08;49.17;101144.75;2569649;23;20368;-64
2022/05/03 01:10:11;;;;;;;9.63;2.40;;;;;;;16.23;49.50;101179.31;2570348;23;20393;-64
2022/05/03 01:11:43;;;;;;;5.27;2.27;;;;;;;16.30;49.27;101181.06;2549162;23;20421;-66
2022/05/03 01:13:02;;;;;;;4.00;2.03;;;;;;;16.30;49.28;101184.63;2520195;23;20563;-64
2022/05/03 01:14:18;;;;;;;4.40;2.10;;;;;;;16.26;49.29;101191.63;2569288;23;20919;-64
2022/05/03 01:15:23;;;;;;;4.83;2.10;;;;;;;16.30;49.54;101184.63;2569700;23;20367;-65
2022/05/03 01:16:33;;;;;;;5.37;2.10;;;;;;;16.20;49.54;101168.28;2569988;23;20411;-64
2022/05/03 01:17:44;;;;;;;4.73;2.30;;;;;;;15.03;49.04;100995.03;2570367;23;20367;-64
2022/05/03 01:19:00;;;;;;;4.47;2.33;;;;;;;16.24;49.00;101188.50;2556569;23;20391;-64
2022/05/03 01:20:07;;;;;;;6.27;2.63;;;;;;;16.27;49.10;101187.56;2559839;23;20375;-64
2022/05/03 01:21:23;;;;;;;6.57;1.90;;;;;;;16.13;49.31;101193.72;2570505;23;20375;-64
2022/05/03 01:22:54;;;;;;;6.27;1.80;;;;;;;16.17;49.17;101195.13;2569959;23;20375;-64
2022/05/03 01:24:36;;;;;;;5.37;2.40;;;;;;;16.13;49.35;101190.94;2569987;23;20379;-64
2022/05/03 01:25:51;;;;;;;5.00;2.47;;;;;;;16.03;49.64;101192.88;2556170;23;20427;-64
2022/05/03 01:27:05;;;;;;;6.37;1.87;;;;;;;16.04;49.89;101193.66;2560148;23;20360;-64
2022/05/03 01:29:02;;;;;;;3.53;2.10;;;;;;;16.01;49.98;101209.31;2570324;23;20370;-64
2022/05/03 01:30:03;;;;;;;5.03;2.33;;;;;;;15.97;49.89;101203.06;2543324;23;20856;-64
2022/05/03 01:31:09;;;;;;;4.43;2.20;;;;;;;15.95;50.30;101205.56;2544394;23;20434;-64
2022/05/03 01:32:12;;;;;;;5.03;2.20;;;;;;;16.05;50.00;101200.81;2544384;23;20584;-64
2022/05/03 01:33:17;;;;;;;4.83;2.00;;;;;;;16.07;49.90;101212.28;2543789;23;20720;-64
2022/05/03 01:34:19;;;;;;;6.73;2.10;;;;;;;16.08;50.07;101202.69;2544355;23;20408;-64
2022/05/03 01:35:21;;;;;;;4.00;2.10;;;;;;;16.07;50.19;101201.13;2555024;23;20509;-65
2022/05/03 01:36:35;;;;;;;5.10;2.50;;;;;;;16.01;50.62;101200.16;2556669;23;20395;-65
2022/05/03 01:37:57;;;;;;;5.23;2.50;;;;;;;15.94;50.41;101201.19;2560166;23;20443;-64
2022/05/03 01:39:10;;;;;;;4.97;2.67;;;;;;;16.01;50.75;101203.72;2569802;23;20411;-64
2022/05/03 01:40:19;;;;;;;2.90;2.13;;;;;;;16.00;50.56;101199.38;2569587;23;20702;-64
2022/05/03 01:41:57;;;;;;;6.33;2.30;;;;;;;15.88;50.97;101202.25;2570432;23;20371;-64
2022/05/03 01:43:07;;;;;;;3.83;2.20;;;;;;;15.89;51.23;101204.56;2570343;23;20466;-65
2022/05/03 01:44:35;;;;;;;3.87;2.20;;;;;;;15.92;51.41;101208.47;2569998;23;20705;-64
2022/05/03 01:46:10;;;;;;;3.17;2.30;;;;;;;15.93;51.70;101196.06;2556687;23;20454;-65
2022/05/03 01:47:22;;;;;;;5.27;2.40;;;;;;;15.98;51.58;101192.69;2564128;23;20391;-65
2022/05/03 01:50:19;;;;;;;6.87;2.40;;;;;;;15.92;52.00;101208.47;2569825;23;20350;-65
2022/05/03 01:51:58;;;;;;;5.83;2.30;;;;;;;15.87;52.22;101206.25;2569397;23;20843;-65
2022/05/03 01:53:20;;;;;;;5.03;2.30;;;;;;;15.82;52.53;101199.25;2542686;23;20425;-65
2022/05/03 01:54:36;;;;;;;4.57;2.60;;;;;;;15.89;52.37;101195.41;2570141;23;20361;-65
2022/05/03 01:56:19;;;;;;;5.80;2.10;;;;;;;15.92;52.56;101186.88;2570095;23;20443;-65
2022/05/03 01:57:34;;;;;;;3.87;2.60;;;;;;;15.90;52.64;101194.97;2570122;23;20375;-64
2022/05/03 01:58:56;;;;;;;5.67;2.50;;;;;;;15.39;52.34;101129.38;2569445;23;20442;-65
2022/05/03 02:00:10;;;;;;;5.73;2.40;;;;;;;15.69;52.38;101187.34;2569549;23;20846;-65
2022/05/03 02:01:42;;;;;;;3.90;2.43;;;;;;;15.75;52.23;101193.13;2570336;23;20737;-64
2022/05/03 02:03:10;;;;;;;5.03;2.67;;;;;;;15.78;51.88;101198.56;2570202;23;21000;-65
2022/05/03 02:04:26;;;;;;;4.37;2.20;;;;;;;15.69;52.22;101192.94;2569981;23;20842;-64
2022/05/03 02:06:03;;;;;;;3.43;2.37;;;;;;;15.69;52.39;101194.94;2569392;23;20367;-65
2022/05/03 02:07:06;;;;;;;4.23;2.57;;;;;;;15.75;52.37;101193.91;2570341;23;20376;-65
2022/05/03 02:08:13;;;;;;;4.40;2.50;;;;;;;15.36;52.44;101137.88;2570163;23;20384;-65
2022/05/03 02:09:14;;;;;;;5.60;2.97;;;;;;;15.57;52.58;101165.81;2569765;23;20359;-66
2022/05/03 02:10:30;;;;;;;6.07;2.53;;;;;;;15.81;52.09;101194.88;2569366;23;20382;-64
2022/05/03 02:11:57;;;;;;;5.67;2.50;;;;;;;15.77;51.98;101191.44;2570193;23;20418;-65
2022/05/03 02:13:10;;;;;;;4.53;2.50;;;;;;;15.72;52.14;101194.81;2570065;23;20428;-65
2022/05/03 02:14:46;;;;;;;5.53;2.70;;;;;;;15.69;52.25;101192.94;2570030;23;20395;-65
2022/05/03 02:15:50;;;;;;;3.97;2.60;;;;;;;15.29;52.39;101141.66;2569788;23;20371;-64
2022/05/03 02:16:59;;;;;;;4.93;2.60;;;;;;;15.70;52.74;101204.88;2570055;23;20474;-65
2022/05/03 02:18:21;;;;;;;3.23;2.50;;;;;;;15.76;52.48;101194.69;2570214;23;20504;-64
2022/05/03 02:19:43;;;;;;;4.57;2.20;;;;;;;15.69;52.52;101201.31;2569590;23;20468;-65
2022/05/03 02:21:17;;;;;;;4.83;2.53;;;;;;;15.57;53.04;101196.53;2556093;23;20398;-64
2022/05/03 02:22:33;;;;;;;4.77;2.70;;;;;;;15.59;52.96;101191.31;2563935;23;20367;-64
2022/05/03 02:23:42;;;;;;;4.50;2.60;;;;;;;15.47;53.01;101192.09;2569896;23;20387;-64
2022/05/03 02:24:53;;;;;;;4.80;2.80;;;;;;;15.42;53.28;101180.75;2569676;23;20883;-64
2022/05/03 02:26:07;;;;;;;3.40;2.63;;;;;;;15.48;53.07;101190.88;2569432;23;20403;-65
2022/05/03 02:27:10;;;;;;;4.10;2.77;;;;;;;15.50;53.27;101198.81;2556863;23;20437;-65
2022/05/03 02:28:24;;;;;;;6.83;2.80;;;;;;;15.44;53.48;101193.03;2557086;23;20928;-65
2022/05/03 02:29:46;;;;;;;4.50;2.50;;;;;;;15.30;53.36;101173.94;2569700;23;20738;-64
2022/05/03 02:30:50;;;;;;;6.67;2.60;;;;;;;15.44;53.15;101189.44;2569638;23;20795;-65
2022/05/03 02:32:05;;;;;;;5.70;2.80;;;;;;;15.43;53.64;101190.69;2570039;23;20388;-65
2022/05/03 02:33:19;;;;;;;4.20;2.83;;;;;;;15.46;53.44;101192.56;2570166;23;20369;-64
2022/05/03 02:34:45;;;;;;;3.80;2.53;;;;;;;15.51;53.62;101189.97;2570174;23;20442;-64
2022/05/03 02:35:51;;;;;;;4.67;2.50;;;;;;;15.52;53.64;101191.53;2545569;23;20476;-64
2022/05/03 02:36:58;;;;;;;5.93;2.60;;;;;;;15.52;53.50;101188.75;2570057;23;20871;-65
2022/05/03 02:38:03;;;;;;;4.43;2.47;;;;;;;15.54;53.44;101193.88;2570190;23;20952;-64
2022/05/03 02:39:06;;;;;;;6.27;3.20;;;;;;;15.49;53.76;101188.88;2569735;23;20440;-64
2022/05/03 02:40:13;;;;;;;8.90;3.27;;;;;;;15.48;53.82;101196.47;2569193;23;20373;-64
2022/05/03 02:41:15;;;;;;;5.90;2.97;;;;;;;14.57;54.13;101062.03;2569995;23;20350;-65
2022/05/03 02:42:18;;;;;;;8.43;3.10;;;;;;;15.45;53.60;101188.22;2570052;23;20372;-65
2022/05/03 02:43:25;;;;;;;5.47;2.97;;;;;;;15.36;53.87;101190.94;2569803;23;20401;-64
2022/05/03 02:44:31;;;;;;;5.13;2.80;;;;;;;15.31;53.94;101197.06;2569905;23;20363;-64
2022/05/03 02:45:37;;;;;;;4.03;2.57;;;;;;;15.40;53.77;101194.38;2569628;23;20364;-64
2022/05/03 02:46:44;;;;;;;4.57;2.80;;;;;;;15.40;53.56;101188.78;2569640;23;20367;-64
2022/05/03 02:48:06;;;;;;;5.23;2.70;;;;;;;15.28;53.62;101189.56;2569219;23;20488;-64
2022/05/03 02:49:19;;;;;;;5.57;2.87;;;;;;;15.32;53.40;101195.81;2569182;23;20364;-64
2022/05/03 02:50:26;;;;;;;5.83;2.60;;;;;;;15.06;53.34;101161.59;2569425;23;20807;-64
2022/05/03 02:51:40;;;;;;;5.73;3.00;;;;;;;15.27;53.94;101199.94;2570194;23;20385;-65
2022/05/03 02:52:59;;;;;;;7.70;2.87;;;;;;;15.34;53.97;101199.75;2556811;23;20414;-65
2022/05/03 02:54:15;;;;;;;4.97;2.33;;;;;;;15.20;53.77;101175.06;2560367;23;20361;-64
2022/05/03 02:55:20;;;;;;;3.90;2.67;;;;;;;15.38;53.53;101205.97;2569545;23;20440;-64
2022/05/03 02:56:30;;;;;;;7.87;2.90;;;;;;;15.33;53.79;101223.34;2569670;23;20364;-64
2022/05/03 02:57:42;;;;;;;6.03;3.00;;;;;;;15.35;54.17;101209.69;2570185;23;20904;-64
2022/05/03 03:01:47;;;;;;;4.70;3.10;;;;;;;15.38;53.76;101210.81;2569452;23;20360;-64
2022/05/03 03:02:34;;;;;;;7.87;3.37;;;;;;;15.02;53.94;101166.50;2547991;23;20354;-64
2022/05/03 03:03:57;;;;;;;6.80;3.00;;;;;;;15.33;54.42;101211.38;2569745;23;20395;-64
2022/05/03 03:05:07;;;;;;;3.90;2.70;;;;;;;15.29;54.62;101219.84;2569853;23;20356;-64
2022/05/03 03:06:19;;;;;;;4.40;3.23;;;;;;;15.27;54.57;101202.75;2569381;23;20479;-64
2022/05/03 03:07:20;;;;;;;7.23;3.23;;;;;;;15.10;54.00;101187.38;2570325;23;20845;-64
2022/05/03 03:08:23;;;;;;;6.33;2.87;;;;;;;15.05;54.31;101168.41;2569861;23;20438;-64
2022/05/03 03:09:41;;;;;;;6.13;3.20;;;;;;;15.31;54.23;101209.00;2569364;23;20394;-64
2022/05/03 03:11:04;;;;;;;4.97;2.63;;;;;;;15.31;54.17;101213.81;2568250;23;20388;-65
2022/05/03 03:12:43;;;;;;;6.10;3.07;;;;;;;15.31;54.06;101211.78;2569342;23;20359;-64
2022/05/03 03:14:11;;;;;;;4.77;2.70;;;;;;;15.34;54.13;101213.72;2569826;23;20370;-65
2022/05/03 03:15:14;;;;;;;4.50;3.00;;;;;;;15.14;54.50;101181.66;2569588;23;20768;-64
2022/05/03 03:16:27;;;;;;;6.47;3.10;;;;;;;15.29;54.44;101219.06;2569637;23;20880;-64
2022/05/03 03:17:29;;;;;;;4.63;3.00;;;;;;;15.24;54.38;101212.03;2569866;23;20371;-64
2022/05/03 03:18:33;;;;;;;4.60;2.60;;;;;;;15.33;54.60;101217.75;2569511;23;20411;-64
2022/05/03 03:20:09;;;;;;;4.70;2.87;;;;;;;15.30;54.77;101227.00;2569967;23;20702;-64
2022/05/03 03:21:12;;;;;;;7.77;2.93;;;;;;;15.27;54.77;101230.66;2569891;23;20375;-65
2022/05/03 03:22:15;;;;;;;4.93;3.00;;;;;;;15.29;54.94;101219.84;2569673;23;20876;-64
2022/05/03 03:23:18;;;;;;;5.93;3.37;;;;;;;15.26;54.76;101229.13;2569685;23;20904;-64
2022/05/03 03:24:20;;;;;;;5.47;3.30;;;;;;;15.19;55.08;101229.34;2569784;23;20855;-64
2022/05/03 03:25:22;;;;;;;5.70;3.37;;;;;;;15.15;55.18;101227.91;2569395;23;20387;-64
2022/05/03 03:26:26;;;;;;;6.90;3.23;;;;;;;15.16;55.42;101230.25;2569540;23;20389;-64
2022/05/03 03:27:28;;;;;;;5.07;3.30;;;;;;;15.21;55.08;101229.69;2569902;23;20783;-64
2022/05/03 03:28:29;;;;;;;4.27;3.23;;;;;;;15.22;55.11;101230.47;2569579;23;20378;-64
2022/05/03 03:29:31;;;;;;;6.27;3.33;;;;;;;15.19;55.02;101220.19;2569908;23;20718;-64
2022/05/03 03:30:31;;;;;;;6.13;3.70;;;;;;;15.28;55.24;101223.09;2569170;23;20723;-64
2022/05/03 03:31:33;;;;;;;6.97;3.27;;;;;;;15.23;55.13;101232.03;2570080;23;20423;-64
2022/05/03 03:32:37;;;;;;;5.03;3.37;;;;;;;15.21;55.29;101231.72;2569880;23;20155;-64
2022/05/03 03:33:41;;;;;;;4.87;3.17;;;;;;;15.18;55.16;101227.00;2569665;23;20375;-64
2022/05/03 03:34:42;;;;;;;6.27;3.47;;;;;;;15.15;55.19;101239.84;2569398;23;20385;-64
2022/05/03 03:35:45;;;;;;;5.83;3.30;;;;;;;14.48;55.02;101126.06;2569764;23;20454;-64
2022/05/03 03:36:49;;;;;;;4.17;3.10;;;;;;;15.26;54.72;101236.72;2556404;23;20395;-64
2022/05/03 03:37:50;;;;;;;5.60;3.50;;;;;;;15.22;54.44;101230.47;2557307;23;20379;-65
2022/05/03 03:38:51;;;;;;;7.27;3.30;;;;;;;15.25;54.54;101235.94;2569345;23;20383;-65
2022/05/03 03:39:51;;;;;;;5.13;3.03;;;;;;;15.21;54.42;101245.66;2569266;23;20896;-64
2022/05/03 03:40:52;;;;;;;5.40;3.23;;;;;;;14.84;54.54;101179.47;2569752;23;20535;-64
2022/05/03 03:41:52;;;;;;;6.60;3.53;;;;;;;15.26;54.18;101234.69;2569856;23;20151;-64
2022/05/03 03:42:54;;;;;;;6.50;3.57;;;;;;;15.27;54.30;101238.28;2569942;23;20152;-64
2022/05/03 03:43:54;;;;;;;6.43;3.43;;;;;;;15.27;54.13;101239.03;2569625;23;20527;-64
2022/05/03 03:44:59;;;;;;;5.63;3.50;;;;;;;14.93;54.20;101210.28;2569565;23;20436;-64
2022/05/03 03:46:00;;;;;;;3.77;3.00;;;;;;;14.63;54.30;101192.13;2569297;23;20136;-64
2022/05/03 03:47:03;;;;;;;5.17;3.10;;;;;;;14.59;54.66;101173.91;2569787;23;20454;-65
2022/05/03 03:48:05;;;;;;;7.23;3.43;;;;;;;15.08;54.55;101245.69;2569877;23;20573;-64
2022/05/03 03:49:05;;;;;;;6.80;3.17;;;;;;;15.01;54.86;101247.91;2569537;23;20721;-64
2022/05/03 03:50:07;;;;;;;5.77;3.33;;;;;;;14.87;55.28;101220.47;2569302;23;20381;-64
2022/05/03 03:51:08;;;;;;;5.30;3.40;;;;;;;15.07;55.35;101248.91;2569828;23;20406;-64
2022/05/03 03:52:10;;;;;;;5.30;3.37;;;;;;;15.13;55.06;101247.13;2569654;23;20431;-64
2022/05/03 03:53:14;;;;;;;5.37;3.57;;;;;;;15.14;54.73;101243.09;2569600;23;20155;-64
2022/05/03 03:54:15;;;;;;;6.27;3.50;;;;;;;15.16;55.09;101247.00;2569700;23;20383;-65
2022/05/03 03:55:15;;;;;;;5.00;3.10;;;;;;;15.16;54.78;101258.16;2569274;23;20402;-64
2022/05/03 03:56:16;;;;;;;5.77;3.60;;;;;;;15.12;55.15;101251.16;2569334;23;20841;-64
2022/05/03 03:57:20;;;;;;;6.57;3.30;;;;;;;15.07;54.70;101252.47;2556516;23;20164;-64
2022/05/03 03:58:20;;;;;;;6.60;3.53;;;;;;;15.07;54.62;101255.25;2556996;23;20371;-64
2022/05/03 03:59:22;;;;;;;4.67;3.50;;;;;;;14.98;55.12;101265.53;2569440;23;20427;-64
2022/05/03 04:00:23;;;;;;;7.77;3.70;;;;;;;14.89;54.91;101240.31;2569512;23;20232;-64
2022/05/03 04:01:25;;;;;;;6.00;3.50;;;;;;;15.01;54.96;101259.84;2568824;23;20454;-64
2022/05/03 04:02:27;;;;;;;6.50;3.40;;;;;;;15.00;55.11;101265.88;2569122;23;20731;-64
2022/05/03 04:03:28;;;;;;;7.63;3.57;;;;;;;15.02;55.23;101261.41;2568520;23;20385;-65
2022/05/03 04:04:37;;;;;;;5.50;3.20;;;;;;;14.96;55.15;101246.44;2567598;23;20458;-64
2022/05/03 04:05:38;;;;;;;7.40;3.50;;;;;;;15.06;55.24;101270.44;2568794;23;20192;-63
2022/05/03 04:06:38;;;;;;;6.17;3.40;;;;;;;15.11;55.27;101275.47;2569342;23;20433;-62
2022/05/03 04:07:39;;;;;;;6.93;3.80;;;;;;;15.14;54.84;101271.81;2569708;23;20156;-63
2022/05/03 04:08:39;;;;;;;5.20;3.10;;;;;;;15.10;54.54;101270.34;2568704;23;20668;-63
2022/05/03 04:09:40;;;;;;;5.23;3.50;;;;;;;15.03;54.57;101273.34;2569844;23;20500;-63
2022/05/03 04:10:40;;;;;;;5.90;3.70;;;;;;;15.06;54.78;101269.69;2568999;23;20647;-63
2022/05/03 04:11:43;;;;;;;5.63;3.40;;;;;;;14.51;54.72;101192.88;2569717;23;20505;-63
2022/05/03 04:12:44;;;;;;;4.93;3.60;;;;;;;14.27;54.73;101168.53;2569779;23;20184;-63
2022/05/03 04:13:45;;;;;;;7.73;3.73;;;;;;;14.91;54.96;101277.72;2569083;23;20386;-63
2022/05/03 04:14:46;;;;;;;4.97;3.80;;;;;;;14.71;54.99;101265.22;2568694;23;20436;-63
2022/05/03 04:15:48;;;;;;;5.53;3.60;;;;;;;14.89;55.33;101285.75;2569168;23;20500;-64
2022/05/03 04:16:48;;;;;;;6.10;3.20;;;;;;;14.91;55.30;101277.72;2568879;23;20459;-63
2022/05/03 04:17:49;;;;;;;6.00;3.47;;;;;;;14.90;55.06;101278.94;2568983;23;20375;-63
2022/05/03 04:18:49;;;;;;;6.53;3.43;;;;;;;14.80;55.40;101271.69;2569085;23;20596;-63
2022/05/03 04:19:50;;;;;;;6.63;4.00;;;;;;;14.00;55.28;101148.63;2569398;23;20496;-64
2022/05/03 04:20:51;;;;;;;5.93;3.50;;;;;;;14.86;55.42;101277.50;2569380;23;20155;-63
2022/05/03 04:21:51;;;;;;;6.03;3.57;;;;;;;14.82;55.56;101276.81;2569633;23;20152;-63
2022/05/03 04:22:52;;;;;;;10.97;3.67;;;;;;;14.76;55.70;101286.97;2568410;23;20201;-63
2022/05/03 04:23:52;;;;;;;5.37;3.57;;;;;;;14.81;55.68;101303.94;2568101;23;20158;-63
2022/05/03 04:24:53;;;;;;;6.57;3.70;;;;;;;14.82;55.69;101274.81;2568961;23;20176;-63
2022/05/03 04:25:54;;;;;;;5.40;3.47;;;;;;;14.73;55.40;101265.53;2568911;23;20155;-63
2022/05/03 04:26:54;;;;;;;6.43;3.50;;;;;;;14.70;55.14;101258.06;2569636;23;20162;-62
2022/05/03 04:27:55;;;;;;;7.23;3.70;;;;;;;14.47;55.06;101210.94;2569547;23;20155;-63
2022/05/03 04:28:59;;;;;;;6.50;3.50;;;;;;;14.88;55.02;101283.41;2569105;23;20706;-63
2022/05/03 04:30:01;;;;;;;7.20;3.93;;;;;;;14.85;55.29;101281.53;2569057;23;20162;-63
2022/05/03 04:31:01;;;;;;;7.57;3.40;;;;;;;14.78;55.41;101271.34;2569422;23;20382;-63
2022/05/03 04:32:02;;;;;;;4.40;3.27;;;;;;;14.60;55.56;101236.84;2569469;23;20414;-63
2022/05/03 04:33:03;;;;;;;4.97;3.57;;;;;;;14.93;55.29;101282.84;2569558;23;20145;-63
2022/05/03 04:34:04;;;;;;;5.40;3.40;;;;;;;14.50;55.28;101204.50;2568684;23;20159;-63
2022/05/03 04:35:05;;;;;;;5.73;3.40;;;;;;;14.97;55.35;101286.31;2568401;23;20243;-63
2022/05/03 04:36:06;;;;;;;6.30;3.60;;;;;;;14.88;55.06;101266.66;2555369;23;20395;-63
2022/05/03 04:37:07;;;;;;;6.27;3.37;;;;;;;14.49;55.03;101217.66;2555860;23;20419;-63
2022/05/03 04:38:07;;;;;;;6.03;3.47;;;;;;;13.86;55.32;101132.31;2568976;23;20232;-63
2022/05/03 04:39:08;;;;;;;4.63;3.50;;;;;;;14.67;55.52;101256.16;2568748;23;20183;-64
2022/05/03 04:40:08;;;;;;;5.47;3.60;;;;;;;14.88;55.24;101292.56;2552223;23;20164;-63
2022/05/03 04:41:09;;;;;;;7.70;4.03;;;;;;;14.87;55.58;101293.81;2553958;23;20163;-64
2022/05/03 04:42:10;;;;;;;5.53;3.10;;;;;;;14.14;55.36;101182.44;2563642;23;20167;-63
2022/05/03 04:43:12;;;;;;;5.93;3.47;;;;;;;14.87;55.68;101295.81;2554402;23;20222;-63
2022/05/03 04:44:12;;;;;;;4.47;3.07;;;;;;;14.89;55.41;101294.13;2554632;23;20698;-63
2022/05/03 04:45:13;;;;;;;6.47;3.27;;;;;;;13.76;55.24;101116.69;2568401;23;20387;-63
2022/05/03 04:46:13;;;;;;;6.07;3.30;;;;;;;14.51;55.50;101231.91;2568130;23;20179;-63
2022/05/03 04:47:14;;;;;;;3.90;3.10;;;;;;;14.56;55.15;101248.09;2568636;23;20481;-63
2022/05/03 04:48:14;;;;;;;6.17;3.53;;;;;;;14.87;55.50;101304.97;2568612;23;20159;-63
2022/05/03 04:49:15;;;;;;;7.27;3.47;;;;;;;14.92;55.40;101303.63;2568046;23;20676;-63
2022/05/03 04:50:16;;;;;;;4.97;3.13;;;;;;;14.25;55.24;101201.66;2566725;23;20223;-63
2022/05/03 04:51:20;;;;;;;4.80;3.30;;;;;;;14.47;55.41;101233.25;2554619;23;20353;-63
2022/05/03 04:52:21;;;;;;;5.47;3.50;;;;;;;15.01;55.20;101303.75;2555784;23;20161;-63
2022/05/03 04:53:22;;;;;;;6.30;3.53;;;;;;;15.09;55.16;101299.47;2564202;23;20403;-63
2022/05/03 04:54:24;;;;;;;4.87;3.10;;;;;;;15.16;54.68;101296.47;2553129;23;20585;-64
2022/05/03 04:55:24;;;;;;;6.23;3.03;;;;;;;15.21;54.54;101301.50;2552351;23;20430;-63
2022/05/03 04:56:25;;;;;;;5.27;3.47;;;;;;;15.07;54.78;101291.56;2539456;23;20396;-63
2022/05/03 04:57:26;;;;;;;7.07;3.30;;;;;;;15.14;54.57;101298.94;2549124;23;20180;-61
2022/05/03 04:58:26;;;;;;;4.80;3.40;;;;;;;15.33;54.62;101300.75;2562512;23;20425;-61
2022/05/03 04:59:27;;;;;;;6.27;3.87;;;;;;;15.43;54.30;101314.34;2551669;23;20195;-62
2022/05/03 05:00:28;;;;;;;6.97;3.97;;;;;;;15.14;54.26;101248.66;2553838;23;20195;-62
2022/05/03 05:01:29;;;;;;;10.27;3.70;;;;;;;15.36;54.17;101311.78;2567481;23;20680;-62
2022/05/03 05:02:29;;;;;;;5.37;3.80;;;;;;;15.35;53.94;101304.66;2567265;23;20166;-62
2022/05/03 05:03:30;;;;;;;5.67;3.30;;;;;;;15.25;54.11;101269.44;2568089;23;20155;-62
2022/05/03 05:04:30;;;;;;;7.47;3.57;;;;;;;15.45;53.58;101305.50;2555858;23;20173;-61
2022/05/03 05:05:31;;;;;;;6.17;3.10;;;;;;;15.46;53.41;101307.06;2566284;23;20247;-68
2022/05/03 05:06:31;;;;;;;6.67;3.20;;;;;;;15.39;53.47;101307.31;2567307;23;20177;-68
2022/05/03 05:07:32;;;;;;;7.10;3.30;;;;;;;14.90;53.82;101258.63;2567714;23;20551;-68
2022/05/03 05:08:32;;;;;;;5.63;3.10;;;;;;;15.30;54.14;101313.56;2567708;23;20152;-68
2022/05/03 05:09:33;;;;;;;7.43;3.33;;;;;;;15.10;54.28;101293.47;2568814;23;20221;-68
2022/05/03 05:10:34;;;;;;;5.87;3.20;;;;;;;15.30;53.98;101321.13;2567748;23;20178;-68
2022/05/03 05:11:34;;;;;;;6.17;3.10;;;;;;;15.25;54.10;101305.75;2568595;23;20918;-68
2022/05/03 05:12:35;;;;;;;5.40;3.30;;;;;;;14.95;53.73;101246.88;2568428;23;20773;-68
2022/05/03 05:13:37;;;;;;;5.70;3.30;;;;;;;15.34;53.54;101311.47;2568709;23;20228;-68
2022/05/03 05:14:38;;;;;;;3.70;2.90;;;;;;;15.34;53.41;101316.25;2565901;23;20236;-68
2022/05/03 05:15:38;;;;;;;7.97;3.63;;;;;;;15.43;53.68;101324.75;2565989;23;20388;-68
2022/05/03 05:16:39;;;;;;;5.53;3.00;;;;;;;14.73;53.38;101196.56;2567080;23;20158;-68
2022/05/03 05:17:39;;;;;;;6.10;3.30;;;;;;;15.46;53.25;101316.25;2555256;23;20167;-68
2022/05/03 05:18:40;;;;;;;5.37;3.27;;;;;;;14.54;53.48;101177.25;2550799;23;20153;-62
2022/05/03 05:19:40;;;;;;;7.13;3.50;;;;;;;15.41;53.80;101321.59;2565926;23;20195;-62
2022/05/03 05:20:41;;;;;;;5.80;3.23;;;;;;;15.32;53.87;101319.47;2566992;23;20159;-62
2022/05/03 05:21:41;;;;;;;5.77;3.60;;;;;;;15.34;53.63;101324.63;2568180;23;20835;-68
2022/05/03 05:22:42;;;;;;;6.27;3.17;;;;;;;14.95;53.29;101252.47;2567522;23;20483;-68
2022/05/03 05:23:43;;;;;;;6.63;3.50;;;;;;;15.34;53.46;101331.03;2568139;23;20152;-68